Terminal Aerodrome Forecast
Issued by NWS

Home | Current Version | Previous Version | Graphics & Text | Print | Product List | Glossary On
Versions: 1 2 3 4 5 6 7 8 9 10 11 12 13 14 15 16 17 18 19
000
FTUS43 KBIS 262138 AAA
TAFDIK
TAF AMD
KDIK 262138Z 2622/2718 16014G23KT P6SM VCTS SCT080CB
      TEMPO 2622/2702 -TSRA BKN050 OVC080CB
     FM270300 14009KT P6SM SCT070 SCT150
     FM271600 15014G23KT P6SM SCT120=

USA.gov is the U.S. government's official web portal to all federal, state and local government web resources and services.